Time;durP1;ratioP1;P1;durP2;ratioP2;P2;SDS_P1;SDS_P2;PMS_P1;PMS_P2;Temp;Humidity;BMP_temperature;BMP_pressure;BME280_temperature;BME280_humidity;BME280_pressure;Samples;Min_cycle;Max_cycle;Signal;HPM_P1;HPM_P2
2022/12/03 00:01:29;;;;;;;;;;;;;;;;;;5059747;28;4910;-65
2022/12/03 00:03:55;;;;;;;;;;;;;;;;;;5057283;28;4934;-63
2022/12/03 00:06:20;;;;;;;;;;;;;;;;;;5062967;28;4709;-62
2022/12/03 00:08:45;;;;;;;;;;;;;;;;;;5054155;28;4971;-63
2022/12/03 00:11:10;;;;;;;;;;;;;;;;;;5057606;28;3394;-64
2022/12/03 00:13:36;;;;;;;;;;;;;;;;;;5058426;28;4655;-64
2022/12/03 00:16:01;;;;;;;;;;;;;;;;;;5059727;28;5047;-65
2022/12/03 00:18:26;;;;;;;;;;;;;;;;;;5072361;28;5108;-63
2022/12/03 00:20:51;;;;;;;;;;;;;;;;;;5058378;28;4548;-63
2022/12/03 00:23:17;;;;;;;;;;;;;;;;;;5061315;28;3310;-63
2022/12/03 00:25:42;;;;;;;;;;;;;;;;;;5055208;28;4852;-63
2022/12/03 00:28:07;;;;;;;;;;;;;;;;;;5051746;28;4866;-63
2022/12/03 00:30:32;;;;;;;;;;;;;;;;;;5054308;28;5091;-64
2022/12/03 00:32:58;;;;;;;;;;;;;;;;;;5050961;28;5050;-63
2022/12/03 00:35:23;;;;;;;;;;;;;;;;;;5057654;28;3318;-63
2022/12/03 00:37:48;;;;;;;;;;;;;;;;;;5058558;28;4404;-62
2022/12/03 00:40:14;;;;;;;;;;;;;;;;;;5056603;28;5066;-62
2022/12/03 00:42:39;;;;;;;;;;;;;;;;;;5060785;28;5067;-62
2022/12/03 00:45:04;;;;;;;;;;;;;;;;;;5059091;28;5093;-63
2022/12/03 00:47:30;;;;;;;;;;;;;;;;;;5052719;28;5117;-63
2022/12/03 00:49:55;;;;;;;;;;;;;;;;;;5058447;28;3239;-65
2022/12/03 00:52:20;;;;;;;;;;;;;;;;;;5058010;28;4984;-63
2022/12/03 00:54:45;;;;;;;;;;;;;;;;;;5058355;28;5148;-63
2022/12/03 00:57:11;;;;;;;;;;;;;;;;;;5058477;28;4881;-62
2022/12/03 00:59:36;;;;;;;;;;;;;;;;;;5060974;28;5041;-64
2022/12/03 01:02:01;;;;;;;;;;;;;;;;;;5065425;28;3521;-63
2022/12/03 01:04:26;;;;;;;;;;;;;;;;;;5052957;28;4936;-64
2022/12/03 01:06:52;;;;;;;;;;;;;;;;;;5059496;28;5135;-63
2022/12/03 01:09:17;;;;;;;;;;;;;;;;;;5054782;28;5023;-63
2022/12/03 01:11:42;;;;;;;;;;;;;;;;;;5052779;28;5140;-64
2022/12/03 01:14:08;;;;;;;;;;;;;;;;;;5055934;28;3421;-64
2022/12/03 01:16:34;;;;;;;;;;;;;;;;;;5054965;28;5187;-63
2022/12/03 01:18:59;;;;;;;;;;;;;;;;;;5063820;28;5046;-65
2022/12/03 01:21:24;;;;;;;;;;;;;;;;;;5062231;28;5173;-64
2022/12/03 01:23:50;;;;;;;;;;;;;;;;;;5065548;28;5483;-64
2022/12/03 01:26:15;;;;;;;;;;;;;;;;;;5061516;28;3569;-64
2022/12/03 01:28:43;;;;;;;;;;;;;;;;;;5065794;28;4376;-64
2022/12/03 01:33:52;;;;;;;;;;;;;;;;;;5055978;28;4925;-63
2022/12/03 01:36:18;;;;;;;;;;;;;;;;;;5054036;28;5137;-64
2022/12/03 01:38:43;;;;;;;;;;;;;;;;;;5076527;28;4509;-63
2022/12/03 01:41:08;;;;;;;;;;;;;;;;;;5066618;28;3482;-64
2022/12/03 01:43:33;;;;;;;;;;;;;;;;;;5058801;28;4598;-64
2022/12/03 01:45:59;;;;;;;;;;;;;;;;;;5058475;28;4865;-64
2022/12/03 01:48:24;;;;;;;;;;;;;;;;;;5056910;28;4625;-63
2022/12/03 01:50:49;;;;;;;;;;;;;;;;;;5056981;28;5036;-63
2022/12/03 01:53:15;;;;;;;;;;;;;;;;;;5062324;28;4341;-65
2022/12/03 01:55:40;;;;;;;;;;;;;;;;;;5054131;28;5146;-63
2022/12/03 01:58:07;;;;;;;;;;;;;;;;;;5069218;28;5015;-63
2022/12/03 02:00:32;;;;;;;;;;;;;;;;;;5096386;28;4639;-63
2022/12/03 02:03:01;;;;;;;;;;;;;;;;;;5061861;28;4456;-64
2022/12/03 02:05:27;;;;;;;;;;;;;;;;;;5062793;28;5628;-65
2022/12/03 02:07:52;;;;;;;;;;;;;;;;;;5057690;28;3397;-63
2022/12/03 02:10:19;;;;;;;;;;;;;;;;;;5064563;28;5047;-63
2022/12/03 02:12:46;;;;;;;;;;;;;;;;;;5067061;28;5045;-63
2022/12/03 02:15:11;;;;;;;;;;;;;;;;;;5058159;28;4850;-63
2022/12/03 02:17:37;;;;;;;;;;;;;;;;;;5057202;28;5045;-64
2022/12/03 02:20:03;;;;;;;;;;;;;;;;;;5088767;28;3438;-64
2022/12/03 02:22:46;;;;;;;;;;;;;;;;;;5055024;28;4885;-63
2022/12/03 02:25:13;;;;;;;;;;;;;;;;;;5067218;28;4968;-65
2022/12/03 02:27:38;;;;;;;;;;;;;;;;;;5059656;28;5010;-63
2022/12/03 02:30:04;;;;;;;;;;;;;;;;;;5058537;28;4862;-63
2022/12/03 02:32:29;;;;;;;;;;;;;;;;;;5061416;28;5288;-64
2022/12/03 02:34:55;;;;;;;;;;;;;;;;;;5055267;28;3467;-64
2022/12/03 02:37:22;;;;;;;;;;;;;;;;;;5062857;28;5799;-63
2022/12/03 02:39:49;;;;;;;;;;;;;;;;;;5084527;28;4934;-63
2022/12/03 02:44:58;;;;;;;;;;;;;;;;;;5060196;28;5057;-63
2022/12/03 02:47:23;;;;;;;;;;;;;;;;;;5072177;28;3160;-64
2022/12/03 02:49:49;;;;;;;;;;;;;;;;;;5063618;28;4782;-64
2022/12/03 02:52:14;;;;;;;;;;;;;;;;;;5056483;28;4679;-64
2022/12/03 02:54:39;;;;;;;;;;;;;;;;;;5061341;28;5055;-63
2022/12/03 02:57:04;;;;;;;;;;;;;;;;;;5061402;28;4730;-64
2022/12/03 02:59:29;;;;;;;;;;;;;;;;;;5065077;28;5072;-63
2022/12/03 03:01:55;;;;;;;;;;;;;;;;;;5059317;28;3421;-63
2022/12/03 03:04:21;;;;;;;;;;;;;;;;;;5074308;28;4925;-64
2022/12/03 03:06:46;;;;;;;;;;;;;;;;;;5059113;28;5392;-64
2022/12/03 03:09:11;;;;;;;;;;;;;;;;;;5060923;28;4464;-65
2022/12/03 03:11:37;;;;;;;;;;;;;;;;;;5058920;28;5641;-62
2022/12/03 03:14:02;;;;;;;;;;;;;;;;;;5055877;28;3372;-64
2022/12/03 03:16:27;;;;;;;;;;;;;;;;;;5061548;28;5121;-64
2022/12/03 03:18:52;;;;;;;;;;;;;;;;;;5059029;28;5087;-66
2022/12/03 03:21:18;;;;;;;;;;;;;;;;;;5060180;28;4996;-64
2022/12/03 03:23:43;;;;;;;;;;;;;;;;;;5074260;28;5697;-64
2022/12/03 03:26:08;;;;;;;;;;;;;;;;;;5055406;28;3259;-63
2022/12/03 03:28:35;;;;;;;;;;;;;;;;;;5059581;28;5075;-63
2022/12/03 03:31:00;;;;;;;;;;;;;;;;;;5059629;28;4994;-64
2022/12/03 03:33:25;;;;;;;;;;;;;;;;;;5061460;28;5259;-64
2022/12/03 03:35:51;;;;;;;;;;;;;;;;;;5060637;28;5069;-65
2022/12/03 03:38:16;;;;;;;;;;;;;;;;;;5060132;28;3289;-64
2022/12/03 03:40:41;;;;;;;;;;;;;;;;;;5081412;28;5143;-63
2022/12/03 03:43:07;;;;;;;;;;;;;;;;;;5055965;28;4882;-63
2022/12/03 03:45:32;;;;;;;;;;;;;;;;;;5053926;28;5054;-64
2022/12/03 03:47:57;;;;;;;;;;;;;;;;;;5059185;28;4455;-64
2022/12/03 03:50:22;;;;;;;;;;;;;;;;;;5086233;28;3282;-63
2022/12/03 03:52:48;;;;;;;;;;;;;;;;;;5053907;28;4615;-63
2022/12/03 03:55:13;;;;;;;;;;;;;;;;;;5052303;28;5259;-63
2022/12/03 03:57:38;;;;;;;;;;;;;;;;;;5054195;28;5120;-63
2022/12/03 04:00:05;;;;;;;;;;;;;;;;;;5073851;28;5450;-63
2022/12/03 04:02:30;;;;;;;;;;;;;;;;;;5065234;28;5111;-65
2022/12/03 04:04:55;;;;;;;;;;;;;;;;;;5071943;28;3332;-64
2022/12/03 04:07:21;;;;;;;;;;;;;;;;;;5055075;28;4619;-64
2022/12/03 04:09:46;;;;;;;;;;;;;;;;;;5054793;28;4982;-64
2022/12/03 04:14:55;;;;;;;;;;;;;;;;;;5059635;28;5064;-64
2022/12/03 04:17:20;;;;;;;;;;;;;;;;;;5058163;28;3368;-64
2022/12/03 04:19:45;;;;;;;;;;;;;;;;;;5059117;28;4944;-65
2022/12/03 04:30:22;;;;;;;;;;;;;;;;;;5052434;28;5176;-62
2022/12/03 04:35:43;;;;;;;;;;;;;;;;;;5057388;28;5129;-63
2022/12/03 04:38:12;;;;;;;;;;;;;;;;;;5053413;28;3367;-62
2022/12/03 04:43:21;;;;;;;;;;;;;;;;;;5060565;28;5086;-63
2022/12/03 04:45:46;;;;;;;;;;;;;;;;;;5053931;28;5558;-66
2022/12/03 04:48:12;;;;;;;;;;;;;;;;;;5062472;28;4912;-64
2022/12/03 04:50:37;;;;;;;;;;;;;;;;;;5068549;28;5136;-63
2022/12/03 04:53:02;;;;;;;;;;;;;;;;;;5051475;28;4503;-63
2022/12/03 04:55:27;;;;;;;;;;;;;;;;;;5056350;28;5394;-64
2022/12/03 04:57:53;;;;;;;;;;;;;;;;;;5056437;28;4510;-64
2022/12/03 05:00:18;;;;;;;;;;;;;;;;;;5057794;28;4932;-64
2022/12/03 05:02:43;;;;;;;;;;;;;;;;;;5058686;28;5236;-63
2022/12/03 05:05:09;;;;;;;;;;;;;;;;;;5054933;28;3235;-63
2022/12/03 05:07:35;;;;;;;;;;;;;;;;;;5054141;28;5056;-64
2022/12/03 05:10:00;;;;;;;;;;;;;;;;;;5059355;28;5000;-63
2022/12/03 05:12:25;;;;;;;;;;;;;;;;;;5061515;28;4933;-63
2022/12/03 05:14:50;;;;;;;;;;;;;;;;;;5064224;28;5092;-63
2022/12/03 05:17:15;;;;;;;;;;;;;;;;;;5057249;28;3371;-62
2022/12/03 05:22:25;;;;;;;;;;;;;;;;;;5053064;28;4608;-65
2022/12/03 05:24:50;;;;;;;;;;;;;;;;;;5057553;28;4631;-64
2022/12/03 05:27:15;;;;;;;;;;;;;;;;;;5059836;28;5083;-64
2022/12/03 05:29:40;;;;;;;;;;;;;;;;;;5062743;28;4679;-64
2022/12/03 05:32:06;;;;;;;;;;;;;;;;;;5062940;28;3148;-64
2022/12/03 05:34:31;;;;;;;;;;;;;;;;;;5055229;28;5149;-63
2022/12/03 05:36:56;;;;;;;;;;;;;;;;;;5053491;28;4975;-62
2022/12/03 05:39:21;;;;;;;;;;;;;;;;;;5056510;28;5188;-63
2022/12/03 05:44:30;;;;;;;;;;;;;;;;;;5049319;28;4575;-64
2022/12/03 05:46:55;;;;;;;;;;;;;;;;;;5055571;28;3471;-64
2022/12/03 05:49:21;;;;;;;;;;;;;;;;;;5056902;28;5079;-63
2022/12/03 05:51:46;;;;;;;;;;;;;;;;;;5058571;28;5061;-66
2022/12/03 05:54:11;;;;;;;;;;;;;;;;;;5057706;28;5154;-63
2022/12/03 05:56:36;;;;;;;;;;;;;;;;;;5059979;28;5304;-63
2022/12/03 05:59:02;;;;;;;;;;;;;;;;;;5052752;28;3271;-63
2022/12/03 06:01:27;;;;;;;;;;;;;;;;;;5053971;28;5110;-63
2022/12/03 06:03:52;;;;;;;;;;;;;;;;;;5047671;28;4713;-63
2022/12/03 06:06:17;;;;;;;;;;;;;;;;;;5053069;28;5488;-63
2022/12/03 06:08:43;;;;;;;;;;;;;;;;;;5060281;28;4970;-63
2022/12/03 06:11:08;;;;;;;;;;;;;;;;;;5062208;28;3286;-63
2022/12/03 06:13:33;;;;;;;;;;;;;;;;;;5061155;28;5150;-64
2022/12/03 06:15:58;;;;;;;;;;;;;;;;;;5064386;28;5591;-63
2022/12/03 06:18:24;;;;;;;;;;;;;;;;;;5059333;28;4823;-65
2022/12/03 06:20:49;;;;;;;;;;;;;;;;;;5062926;28;4596;-64
2022/12/03 06:23:14;;;;;;;;;;;;;;;;;;5067107;28;3367;-63
2022/12/03 06:25:39;;;;;;;;;;;;;;;;;;5058344;28;5066;-66
2022/12/03 06:28:06;;;;;;;;;;;;;;;;;;5065262;28;4956;-66
2022/12/03 06:30:33;;;;;;;;;;;;;;;;;;5059430;28;4997;-63
2022/12/03 06:32:58;;;;;;;;;;;;;;;;;;5056305;28;5558;-63
2022/12/03 06:35:23;;;;;;;;;;;;;;;;;;5059978;28;3278;-66
2022/12/03 06:37:48;;;;;;;;;;;;;;;;;;5054733;28;6006;-63
2022/12/03 06:40:15;;;;;;;;;;;;;;;;;;5067508;28;5084;-63
2022/12/03 06:42:40;;;;;;;;;;;;;;;;;;5059536;28;4665;-66
2022/12/03 06:45:06;;;;;;;;;;;;;;;;;;5057384;28;5033;-63
2022/12/03 06:47:31;;;;;;;;;;;;;;;;;;5058311;28;5169;-63
2022/12/03 06:49:56;;;;;;;;;;;;;;;;;;5061607;28;3381;-63
2022/12/03 06:52:21;;;;;;;;;;;;;;;;;;5061167;28;5144;-63
2022/12/03 06:54:47;;;;;;;;;;;;;;;;;;5061399;28;5055;-63
2022/12/03 06:57:12;;;;;;;;;;;;;;;;;;5060623;28;5138;-63
2022/12/03 06:59:37;;;;;;;;;;;;;;;;;;5052710;28;4943;-64
2022/12/03 07:02:03;;;;;;;;;;;;;;;;;;5060468;28;3398;-63
2022/12/03 07:04:28;;;;;;;;;;;;;;;;;;5059044;28;4723;-63
2022/12/03 07:06:53;;;;;;;;;;;;;;;;;;5060883;28;4487;-65
2022/12/03 07:09:19;;;;;;;;;;;;;;;;;;5055322;28;5248;-64
2022/12/03 07:11:44;;;;;;;;;;;;;;;;;;5059674;28;4990;-63
2022/12/03 07:14:10;;;;;;;;;;;;;;;;;;5060334;28;3548;-65
2022/12/03 07:16:35;;;;;;;;;;;;;;;;;;5059498;28;4983;-63
2022/12/03 07:19:00;;;;;;;;;;;;;;;;;;5060585;28;5104;-64
2022/12/03 07:21:26;;;;;;;;;;;;;;;;;;5060982;28;5071;-65
2022/12/03 07:23:51;;;;;;;;;;;;;;;;;;5058674;28;4496;-64
2022/12/03 07:26:16;;;;;;;;;;;;;;;;;;5055334;28;3508;-63
2022/12/03 07:28:41;;;;;;;;;;;;;;;;;;5058571;28;5072;-64
2022/12/03 07:31:07;;;;;;;;;;;;;;;;;;5055797;28;5081;-63
2022/12/03 07:33:32;;;;;;;;;;;;;;;;;;5056640;28;5011;-64
2022/12/03 07:35:57;;;;;;;;;;;;;;;;;;5060763;28;5012;-64
2022/12/03 07:38:22;;;;;;;;;;;;;;;;;;5061383;28;3251;-66
2022/12/03 07:40:48;;;;;;;;;;;;;;;;;;5060799;28;4964;-63
2022/12/03 07:43:13;;;;;;;;;;;;;;;;;;5056071;28;4988;-64
2022/12/03 07:45:38;;;;;;;;;;;;;;;;;;5057425;28;4976;-63
2022/12/03 07:48:03;;;;;;;;;;;;;;;;;;5064255;28;4999;-64
2022/12/03 07:50:29;;;;;;;;;;;;;;;;;;5056603;28;4636;-63
2022/12/03 07:52:54;;;;;;;;;;;;;;;;;;5059931;28;4582;-65
2022/12/03 07:55:20;;;;;;;;;;;;;;;;;;5057789;28;4957;-63
2022/12/03 07:57:45;;;;;;;;;;;;;;;;;;5058021;28;4509;-62
2022/12/03 08:00:11;;;;;;;;;;;;;;;;;;5061182;28;5106;-64
2022/12/03 08:02:36;;;;;;;;;;;;;;;;;;5052814;28;4699;-64
2022/12/03 08:05:01;;;;;;;;;;;;;;;;;;5054425;28;3439;-63
2022/12/03 08:07:26;;;;;;;;;;;;;;;;;;5048494;28;4613;-64
2022/12/03 08:09:51;;;;;;;;;;;;;;;;;;5057929;28;4674;-64
2022/12/03 08:12:20;;;;;;;;;;;;;;;;;;5089704;28;4923;-63
2022/12/03 08:14:45;;;;;;;;;;;;;;;;;;5057324;28;4970;-63
2022/12/03 08:17:11;;;;;;;;;;;;;;;;;;5075392;28;3484;-62
2022/12/03 08:19:36;;;;;;;;;;;;;;;;;;5055705;28;4420;-64
2022/12/03 08:22:01;;;;;;;;;;;;;;;;;;5061899;28;4948;-63
2022/12/03 08:24:28;;;;;;;;;;;;;;;;;;5062325;28;4693;-64
2022/12/03 08:26:53;;;;;;;;;;;;;;;;;;5058353;28;5034;-63
2022/12/03 08:29:18;;;;;;;;;;;;;;;;;;5060746;28;3220;-63
2022/12/03 08:31:47;;;;;;;;;;;;;;;;;;5057054;28;4483;-64
2022/12/03 08:34:14;;;;;;;;;;;;;;;;;;5052082;28;5377;-64
2022/12/03 08:36:40;;;;;;;;;;;;;;;;;;5072593;28;4888;-63
2022/12/03 08:39:40;;;;;;;;;;;;;;;;;;5054678;28;4610;-63
2022/12/03 08:44:53;;;;;;;;;;;;;;;;;;5058991;28;5063;-63
2022/12/03 08:47:19;;;;;;;;;;;;;;;;;;5058776;28;3488;-63
2022/12/03 08:49:46;;;;;;;;;;;;;;;;;;5061306;28;5043;-63
2022/12/03 08:52:13;;;;;;;;;;;;;;;;;;5057043;28;5061;-63
2022/12/03 08:54:39;;;;;;;;;;;;;;;;;;5056858;28;5179;-63
2022/12/03 08:57:37;;;;;;;;;;;;;;;;;;5053069;28;5590;-65
2022/12/03 09:00:14;;;;;;;;;;;;;;;;;;5071101;28;5362;-63
2022/12/03 09:02:42;;;;;;;;;;;;;;;;;;5050229;28;5732;-63
2022/12/03 09:05:20;;;;;;;;;;;;;;;;;;5051090;28;3445;-68
2022/12/03 09:07:45;;;;;;;;;;;;;;;;;;5059781;28;4578;-70
2022/12/03 09:10:10;;;;;;;;;;;;;;;;;;5063478;28;5012;-70
2022/12/03 09:12:36;;;;;;;;;;;;;;;;;;5059078;28;5082;-76
2022/12/03 09:15:01;;;;;;;;;;;;;;;;;;5059772;28;4603;-71
2022/12/03 09:17:26;;;;;;;;;;;;;;;;;;5060185;28;5199;-67
2022/12/03 09:19:51;;;;;;;;;;;;;;;;;;5057085;28;3288;-68
2022/12/03 09:22:17;;;;;;;;;;;;;;;;;;5096688;28;5702;-69
2022/12/03 09:24:42;;;;;;;;;;;;;;;;;;5060166;28;5016;-68
2022/12/03 09:27:07;;;;;;;;;;;;;;;;;;5062429;28;5078;-68
2022/12/03 09:29:32;;;;;;;;;;;;;;;;;;5053830;28;4864;-68
2022/12/03 09:31:58;;;;;;;;;;;;;;;;;;5069046;28;3461;-68
2022/12/03 09:34:23;;;;;;;;;;;;;;;;;;5061369;28;4750;-68
2022/12/03 09:36:48;;;;;;;;;;;;;;;;;;5067674;28;5019;-68
2022/12/03 09:39:13;;;;;;;;;;;;;;;;;;5057222;28;5288;-69
2022/12/03 09:41:39;;;;;;;;;;;;;;;;;;5059731;28;4863;-67
2022/12/03 09:44:04;;;;;;;;;;;;;;;;;;5066600;28;3106;-61
2022/12/03 09:46:29;;;;;;;;;;;;;;;;;;5063821;28;5114;-62
2022/12/03 09:48:54;;;;;;;;;;;;;;;;;;5056506;28;4691;-66
2022/12/03 09:51:20;;;;;;;;;;;;;;;;;;5064609;28;5023;-66
2022/12/03 09:53:45;;;;;;;;;;;;;;;;;;5058228;28;4979;-63
2022/12/03 09:56:15;;;;;;;;;;;;;;;;;;5070793;28;3262;-64
2022/12/03 09:58:41;;;;;;;;;;;;;;;;;;5061944;28;5037;-64
2022/12/03 10:01:09;;;;;;;;;;;;;;;;;;5061214;28;4980;-65
2022/12/03 10:03:34;;;;;;;;;;;;;;;;;;5092282;28;5237;-64
2022/12/03 10:06:00;;;;;;;;;;;;;;;;;;5066952;28;4989;-64
2022/12/03 10:08:29;;;;;;;;;;;;;;;;;;5066418;28;5034;-63
2022/12/03 10:10:55;;;;;;;;;;;;;;;;;;5068576;28;3307;-64
2022/12/03 10:13:24;;;;;;;;;;;;;;;;;;5055995;28;4431;-64
2022/12/03 10:15:50;;;;;;;;;;;;;;;;;;5063041;28;5136;-64
2022/12/03 10:18:23;;;;;;;;;;;;;;;;;;5078816;28;5116;-66
2022/12/03 10:20:48;;;;;;;;;;;;;;;;;;5061285;28;5188;-59
2022/12/03 10:23:20;;;;;;;;;;;;;;;;;;5060789;28;3081;-60
2022/12/03 10:25:58;;;;;;;;;;;;;;;;;;5059094;28;4393;-62
2022/12/03 10:28:27;;;;;;;;;;;;;;;;;;5061457;28;4987;-61
2022/12/03 10:30:54;;;;;;;;;;;;;;;;;;5064915;28;5091;-60
2022/12/03 10:33:19;;;;;;;;;;;;;;;;;;5065747;28;4914;-60
2022/12/03 10:35:44;;;;;;;;;;;;;;;;;;5060533;28;4619;-60
2022/12/03 10:38:16;;;;;;;;;;;;;;;;;;5055049;28;3283;-61
2022/12/03 10:40:41;;;;;;;;;;;;;;;;;;5055653;28;5228;-61
2022/12/03 10:43:18;;;;;;;;;;;;;;;;;;5061747;28;4959;-60
2022/12/03 10:45:48;;;;;;;;;;;;;;;;;;5052021;28;4977;-64
2022/12/03 10:48:14;;;;;;;;;;;;;;;;;;5063559;28;5022;-62
2022/12/03 10:50:45;;;;;;;;;;;;;;;;;;5065482;28;4867;-60
2022/12/03 10:53:10;;;;;;;;;;;;;;;;;;5065889;28;4601;-61
2022/12/03 10:55:37;;;;;;;;;;;;;;;;;;5057012;28;4739;-62
2022/12/03 10:58:02;;;;;;;;;;;;;;;;;;5067296;28;4989;-61
2022/12/03 11:00:27;;;;;;;;;;;;;;;;;;5064480;28;5119;-62
2022/12/03 11:02:52;;;;;;;;;;;;;;;;;;5063687;28;5031;-61
2022/12/03 11:05:19;;;;;;;;;;;;;;;;;;5049513;28;1895;-62
2022/12/03 11:07:45;;;;;;;;;;;;;;;;;;5077204;28;4982;-62
2022/12/03 11:10:13;;;;;;;;;;;;;;;;;;5034609;28;4900;-62
2022/12/03 11:12:39;;;;;;;;;;;;;;;;;;5062543;28;4607;-63
2022/12/03 11:15:07;;;;;;;;;;;;;;;;;;5064256;28;5272;-63
2022/12/03 11:17:39;;;;;;;;;;;;;;;;;;5062520;28;4856;-62
2022/12/03 11:20:06;;;;;;;;;;;;;;;;;;5058985;28;1106;-61
2022/12/03 11:22:52;;;;;;;;;;;;;;;;;;5056904;28;5034;-60
2022/12/03 11:25:40;;;;;;;;;;;;;;;;;;5054636;28;4610;-61
2022/12/03 11:28:09;;;;;;;;;;;;;;;;;;5050753;28;4598;-61
2022/12/03 11:30:49;;;;;;;;;;;;;;;;;;5053131;28;5187;-62
2022/12/03 11:33:35;;;;;;;;;;;;;;;;;;5055756;28;5234;-63
2022/12/03 11:36:03;;;;;;;;;;;;;;;;;;5068249;28;4865;-61
2022/12/03 11:38:41;;;;;;;;;;;;;;;;;;5066496;28;4652;-61
2022/12/03 11:41:07;;;;;;;;;;;;;;;;;;5058852;28;3212;-62
2022/12/03 11:43:50;;;;;;;;;;;;;;;;;;5055196;28;5170;-61
2022/12/03 11:46:15;;;;;;;;;;;;;;;;;;5065895;28;4406;-63
2022/12/03 11:48:44;;;;;;;;;;;;;;;;;;5062889;28;5084;-61
2022/12/03 11:51:13;;;;;;;;;;;;;;;;;;5060745;28;4718;-62
2022/12/03 11:53:38;;;;;;;;;;;;;;;;;;5055899;28;5139;-63
2022/12/03 11:56:12;;;;;;;;;;;;;;;;;;5060870;28;3385;-62
2022/12/03 11:58:38;;;;;;;;;;;;;;;;;;5060372;28;4911;-63
2022/12/03 12:01:04;;;;;;;;;;;;;;;;;;5057214;28;4724;-63
2022/12/03 12:03:33;;;;;;;;;;;;;;;;;;5052967;28;5024;-63
2022/12/03 12:06:08;;;;;;;;;;;;;;;;;;5051805;28;4698;-63
2022/12/03 12:08:34;;;;;;;;;;;;;;;;;;5060119;28;5127;-63
2022/12/03 12:10:59;;;;;;;;;;;;;;;;;;5065879;28;3795;-63
2022/12/03 12:13:31;;;;;;;;;;;;;;;;;;5054416;28;5226;-63
2022/12/03 12:15:56;;;;;;;;;;;;;;;;;;5061349;28;4678;-62
2022/12/03 12:18:37;;;;;;;;;;;;;;;;;;5068106;28;4957;-63
2022/12/03 12:21:21;;;;;;;;;;;;;;;;;;5056036;28;5000;-61
2022/12/03 12:23:46;;;;;;;;;;;;;;;;;;5051257;28;4449;-62
2022/12/03 12:26:12;;;;;;;;;;;;;;;;;;5054585;28;3577;-64
2022/12/03 12:28:37;;;;;;;;;;;;;;;;;;5064198;28;5014;-61
2022/12/03 12:31:06;;;;;;;;;;;;;;;;;;5060489;28;4628;-64
2022/12/03 12:33:34;;;;;;;;;;;;;;;;;;5057605;28;4687;-65
2022/12/03 12:36:00;;;;;;;;;;;;;;;;;;5050427;28;5077;-63
2022/12/03 12:38:26;;;;;;;;;;;;;;;;;;5073909;28;5122;-63
2022/12/03 12:40:51;;;;;;;;;;;;;;;;;;5053120;28;3456;-62
2022/12/03 12:43:20;;;;;;;;;;;;;;;;;;5056485;28;4729;-61
2022/12/03 12:45:46;;;;;;;;;;;;;;;;;;5057071;28;5053;-63
2022/12/03 12:48:21;;;;;;;;;;;;;;;;;;5064812;28;5091;-60
2022/12/03 12:50:47;;;;;;;;;;;;;;;;;;5062311;28;5174;-60
2022/12/03 12:53:16;;;;;;;;;;;;;;;;;;5054985;28;4483;-60
2022/12/03 12:55:41;;;;;;;;;;;;;;;;;;5061588;28;4984;-60
2022/12/03 12:58:07;;;;;;;;;;;;;;;;;;5067360;28;4426;-59
2022/12/03 13:00:32;;;;;;;;;;;;;;;;;;5062750;28;4943;-59
2022/12/03 13:03:01;;;;;;;;;;;;;;;;;;5063596;28;4977;-61
2022/12/03 13:05:37;;;;;;;;;;;;;;;;;;5074920;28;4470;-63
2022/12/03 13:08:05;;;;;;;;;;;;;;;;;;5064958;28;3442;-61
2022/12/03 13:10:35;;;;;;;;;;;;;;;;;;5061113;28;5092;-62
2022/12/03 13:13:11;;;;;;;;;;;;;;;;;;5062490;28;4977;-61
2022/12/03 13:15:37;;;;;;;;;;;;;;;;;;5062285;28;5130;-60
2022/12/03 13:18:34;;;;;;;;;;;;;;;;;;5064665;28;4455;-62
2022/12/03 13:21:05;;;;;;;;;;;;;;;;;;5054884;28;4712;-61
2022/12/03 13:23:31;;;;;;;;;;;;;;;;;;5075742;28;4892;-60
2022/12/03 13:25:57;;;;;;;;;;;;;;;;;;5064118;28;3211;-63
2022/12/03 13:28:23;;;;;;;;;;;;;;;;;;5068751;28;5061;-60
2022/12/03 13:30:48;;;;;;;;;;;;;;;;;;5063777;28;4893;-63
2022/12/03 13:33:22;;;;;;;;;;;;;;;;;;5055804;28;5351;-63
2022/12/03 13:35:49;;;;;;;;;;;;;;;;;;5052493;28;5109;-61
2022/12/03 13:38:14;;;;;;;;;;;;;;;;;;5062169;28;1142;-61
2022/12/03 13:40:40;;;;;;;;;;;;;;;;;;5069413;28;5306;-62
2022/12/03 13:43:13;;;;;;;;;;;;;;;;;;5071117;28;4936;-61
2022/12/03 13:45:38;;;;;;;;;;;;;;;;;;5068571;28;4980;-65
2022/12/03 13:48:18;;;;;;;;;;;;;;;;;;5058163;28;4485;-60
2022/12/03 13:50:44;;;;;;;;;;;;;;;;;;5045866;28;4504;-61
2022/12/03 13:53:10;;;;;;;;;;;;;;;;;;5061955;28;4690;-62
2022/12/03 13:55:36;;;;;;;;;;;;;;;;;;5060421;28;5053;-63
2022/12/03 13:58:01;;;;;;;;;;;;;;;;;;5069557;28;5405;-60
2022/12/03 14:00:27;;;;;;;;;;;;;;;;;;5078575;28;4493;-62
2022/12/03 14:02:52;;;;;;;;;;;;;;;;;;5062444;28;4937;-61
2022/12/03 14:05:17;;;;;;;;;;;;;;;;;;5066312;28;3346;-64
2022/12/03 14:07:43;;;;;;;;;;;;;;;;;;5061757;28;4399;-60
2022/12/03 14:10:08;;;;;;;;;;;;;;;;;;5060729;28;4839;-61
2022/12/03 14:12:33;;;;;;;;;;;;;;;;;;5079212;28;4800;-61
2022/12/03 14:14:59;;;;;;;;;;;;;;;;;;5060589;28;5101;-60
2022/12/03 14:17:24;;;;;;;;;;;;;;;;;;5089951;28;1128;-61
2022/12/03 14:19:50;;;;;;;;;;;;;;;;;;5064036;28;4484;-62
2022/12/03 14:22:17;;;;;;;;;;;;;;;;;;5064742;28;4980;-62
2022/12/03 14:24:42;;;;;;;;;;;;;;;;;;5070912;28;4972;-63
2022/12/03 14:27:08;;;;;;;;;;;;;;;;;;5069508;28;5069;-60
2022/12/03 14:29:33;;;;;;;;;;;;;;;;;;5062931;28;5018;-61
2022/12/03 14:31:58;;;;;;;;;;;;;;;;;;5063221;28;3449;-62
2022/12/03 14:34:23;;;;;;;;;;;;;;;;;;5059540;28;4505;-61
2022/12/03 14:36:49;;;;;;;;;;;;;;;;;;5053474;28;5994;-62
2022/12/03 14:39:14;;;;;;;;;;;;;;;;;;5063402;28;4413;-62
2022/12/03 14:44:24;;;;;;;;;;;;;;;;;;5054438;28;3536;-60
2022/12/03 14:46:49;;;;;;;;;;;;;;;;;;5063431;28;4976;-61
2022/12/03 14:49:14;;;;;;;;;;;;;;;;;;5067306;27;5252;-61
2022/12/03 14:51:40;;;;;;;;;;;;;;;;;;5063804;28;5768;-63
2022/12/03 14:54:05;;;;;;;;;;;;;;;;;;5050381;28;4893;-61
2022/12/03 14:56:30;;;;;;;;;;;;;;;;;;5050399;28;5052;-62
2022/12/03 14:58:56;;;;;;;;;;;;;;;;;;5060232;28;1296;-62
2022/12/03 15:01:21;;;;;;;;;;;;;;;;;;5069526;28;4476;-62
2022/12/03 15:03:46;;;;;;;;;;;;;;;;;;5060462;28;4802;-61
2022/12/03 15:06:12;;;;;;;;;;;;;;;;;;5065123;28;4574;-61
2022/12/03 15:08:37;;;;;;;;;;;;;;;;;;5065360;28;5099;-61
2022/12/03 15:11:02;;;;;;;;;;;;;;;;;;5070406;28;1162;-61
2022/12/03 15:13:27;;;;;;;;;;;;;;;;;;5057166;28;4458;-62
2022/12/03 15:15:53;;;;;;;;;;;;;;;;;;5057439;28;4844;-61
2022/12/03 15:18:18;;;;;;;;;;;;;;;;;;5050882;28;5138;-60
2022/12/03 15:20:43;;;;;;;;;;;;;;;;;;5064274;28;5094;-60
2022/12/03 15:23:09;;;;;;;;;;;;;;;;;;5064941;28;3442;-64
2022/12/03 15:25:34;;;;;;;;;;;;;;;;;;5054988;28;5036;-66
2022/12/03 15:27:59;;;;;;;;;;;;;;;;;;5059617;28;4457;-63
2022/12/03 15:30:24;;;;;;;;;;;;;;;;;;5053837;28;4552;-65
2022/12/03 15:32:50;;;;;;;;;;;;;;;;;;5057180;28;5110;-63
2022/12/03 15:35:17;;;;;;;;;;;;;;;;;;5053365;28;3410;-62
2022/12/03 15:37:45;;;;;;;;;;;;;;;;;;5061390;28;4622;-62
2022/12/03 15:40:10;;;;;;;;;;;;;;;;;;5057161;28;4478;-63
2022/12/03 15:42:36;;;;;;;;;;;;;;;;;;5058608;28;5009;-61
2022/12/03 15:45:01;;;;;;;;;;;;;;;;;;5059530;28;5247;-61
2022/12/03 15:47:26;;;;;;;;;;;;;;;;;;5062265;28;4998;-61
2022/12/03 15:49:51;;;;;;;;;;;;;;;;;;5062931;28;1110;-63
2022/12/03 15:52:17;;;;;;;;;;;;;;;;;;5060827;28;5051;-62
2022/12/03 15:54:42;;;;;;;;;;;;;;;;;;5062621;28;5126;-62
2022/12/03 15:57:08;;;;;;;;;;;;;;;;;;5058094;28;5335;-61
2022/12/03 15:59:33;;;;;;;;;;;;;;;;;;5063493;28;5054;-61
2022/12/03 16:01:58;;;;;;;;;;;;;;;;;;5062170;28;3489;-61
2022/12/03 16:04:23;;;;;;;;;;;;;;;;;;5052701;28;5130;-60
2022/12/03 16:06:49;;;;;;;;;;;;;;;;;;5074859;28;5104;-61
2022/12/03 16:09:14;;;;;;;;;;;;;;;;;;5057505;28;4636;-62
2022/12/03 16:11:39;;;;;;;;;;;;;;;;;;5066123;28;4967;-63
2022/12/03 16:14:04;;;;;;;;;;;;;;;;;;5054000;28;3244;-63
2022/12/03 16:16:30;;;;;;;;;;;;;;;;;;5066431;28;4551;-62
2022/12/03 16:18:55;;;;;;;;;;;;;;;;;;5065575;28;5082;-62
2022/12/03 16:21:20;;;;;;;;;;;;;;;;;;5054200;28;5094;-61
2022/12/03 16:23:45;;;;;;;;;;;;;;;;;;5050942;28;5102;-62
2022/12/03 16:26:11;;;;;;;;;;;;;;;;;;5051439;28;3562;-63
2022/12/03 16:28:36;;;;;;;;;;;;;;;;;;5058166;28;5150;-63
2022/12/03 16:31:01;;;;;;;;;;;;;;;;;;5055572;28;5205;-63
2022/12/03 16:33:26;;;;;;;;;;;;;;;;;;5056618;28;5038;-65
2022/12/03 16:35:52;;;;;;;;;;;;;;;;;;5057750;28;4683;-65
2022/12/03 16:38:17;;;;;;;;;;;;;;;;;;5053578;28;3228;-64
2022/12/03 16:40:42;;;;;;;;;;;;;;;;;;5056887;28;5072;-65
2022/12/03 16:43:09;;;;;;;;;;;;;;;;;;5057152;28;4555;-63
2022/12/03 16:48:18;;;;;;;;;;;;;;;;;;5055698;28;5110;-63
2022/12/03 16:50:43;;;;;;;;;;;;;;;;;;5056921;28;5048;-63
2022/12/03 16:53:09;;;;;;;;;;;;;;;;;;5057851;28;4757;-64
2022/12/03 16:55:34;;;;;;;;;;;;;;;;;;5062130;28;4390;-63
2022/12/03 16:57:59;;;;;;;;;;;;;;;;;;5059951;28;4440;-64
2022/12/03 17:00:25;;;;;;;;;;;;;;;;;;5063330;28;5125;-63
2022/12/03 17:03:05;;;;;;;;;;;;;;;;;;5038909;28;5317;-64
2022/12/03 17:05:30;;;;;;;;;;;;;;;;;;5055064;28;5077;-64
2022/12/03 17:07:56;;;;;;;;;;;;;;;;;;5062511;28;2318;-64
2022/12/03 17:10:21;;;;;;;;;;;;;;;;;;5057908;28;5100;-64
2022/12/03 17:12:46;;;;;;;;;;;;;;;;;;5062722;28;4463;-64
2022/12/03 17:15:11;;;;;;;;;;;;;;;;;;5052946;28;5160;-63
2022/12/03 17:17:36;;;;;;;;;;;;;;;;;;5061680;28;5093;-64
2022/12/03 17:20:04;;;;;;;;;;;;;;;;;;5056952;28;3160;-63
2022/12/03 17:22:30;;;;;;;;;;;;;;;;;;5060589;28;5047;-63
2022/12/03 17:24:55;;;;;;;;;;;;;;;;;;5058939;28;5535;-64
2022/12/03 17:27:22;;;;;;;;;;;;;;;;;;5058472;28;4501;-65
2022/12/03 17:29:47;;;;;;;;;;;;;;;;;;5060767;28;4949;-64
2022/12/03 17:32:13;;;;;;;;;;;;;;;;;;5061586;28;1501;-64
2022/12/03 17:34:38;;;;;;;;;;;;;;;;;;5060214;28;5086;-63